Bingham, New Mexico
Current Conditions -  °F | °C
As of 5:15 PM on Monday 20 Oct 2014 (Local Time) from KSRR Reporting Station
Thunderstorm Thunderstorm  
Wind Chill: 55°   Ceiling: 10000
Heat Index: 55°   Visibility: 10mi
Dew Point: 48°   Wind: 10mph
Humidity: 77%   Direction: 120°ESE
Pressure: 30.22"   Gusts: NA
Location:  34.0228°N, 106.016°W
Report Text: KSRR 202315Z AUTO 12009KT 10SM VCTS FEW023 BKN100 13/09 A3022 RMK AO2 LTG DSNT W-N
Loading
Personal Weather Stations






























Interactive Weather Map
Tropical Storm Tracking
New forecast layout! Learn more

10-Day Weather Forecast

Advertisements
Track Severe Weather on mobile